Pagina principale
METAR-TAF:

METAR-TAF

Aeroporti :

Aeroporto di Nantes Atlantique

Nantes, Francia

latitudine: 47-10N, longitudine: 001-36W, altezza: 27 m

Osservazione

Il bollettino è stato emesso 23 minuti fa, alle 04:30 UTC
Vento 11 kt da nord-est con raffiche fino a 22 kt, variando fra nord e est/nord-est
Temperature 2°C
Umidità 51%
Pressione 1028 hPa
Visibilità 10 km o più
nessuna nube inferiore a 1500 m e nessun cumulonembo

METAR: LFRS 300430Z AUTO 04011G22KT 350V070 CAVOK 02/M07 Q1028 TEMPO 04020G35KT

Ora: 06:53 (04:53 UTC)

Previsione

Il bollettino è stato emesso 5 ore e 53 minuti fa, alle 23:00 UTC
Previsione valida dal 30 alle 00 UTC al 31 alle 06 UTC
Vento 15 kt da nord/nord-est con raffiche fino a 25 kt
Visibilità 10 km o più
nessuna nube inferiore a 1500 m e nessun cumulonembo
Temporaneamente
dal 30 alle 00 UTC al 30 alle 20 UTC
Vento 20 kt da nord-est con raffiche fino a 35 kt

TAF: LFRS 292300Z 3000/3106 03015G25KT CAVOK TEMPO 3000/3020 04020G35KT

Osservazioni e previsioni meteorologiche di più di 4000 aeroporti (messaggi METAR e TAF).

Le stazioni disponibili sono rappresentate dai dischi gialli e rossi sulla carta.

Puntare il mouse per vedere il nome della stazione.

Clicca sopra per visualizzare le osservazioni e previsioni meteorologiche.

Per cambiare la mappa : fare clic sui pulsanti verdi con una croce nera per ingrandire, il pulsante verde con un trattino per diminuire, o sulla freccia verde per le mappe adiacenti.


METAR-TAF: